sensor_id;sensor_type;location;lat;lon;timestamp;P1;durP1;ratioP1;P2;durP2;ratioP2
6358;SDS011;3212;51.460;11.868;2022-09-09T00:02:32;2.60;;;1.63;;
6358;SDS011;3212;51.460;11.868;2022-09-09T00:05:58;2.87;;;2.00;;
6358;SDS011;3212;51.460;11.868;2022-09-09T00:09:26;4.73;;;1.80;;
6358;SDS011;3212;51.460;11.868;2022-09-09T00:16:41;4.87;;;1.70;;
6358;SDS011;3212;51.460;11.868;2022-09-09T00:23:44;1.97;;;1.73;;
6358;SDS011;3212;51.460;11.868;2022-09-09T00:27:08;2.37;;;1.70;;
6358;SDS011;3212;51.460;11.868;2022-09-09T00:30:31;1.83;;;1.60;;
6358;SDS011;3212;51.460;11.868;2022-09-09T00:33:53;3.20;;;1.90;;
6358;SDS011;3212;51.460;11.868;2022-09-09T00:37:16;4.40;;;2.10;;
6358;SDS011;3212;51.460;11.868;2022-09-09T00:40:45;3.30;;;1.60;;
6358;SDS011;3212;51.460;11.868;2022-09-09T00:44:11;4.10;;;2.23;;
6358;SDS011;3212;51.460;11.868;2022-09-09T00:47:37;4.33;;;1.97;;
6358;SDS011;3212;51.460;11.868;2022-09-09T00:50:58;3.03;;;1.97;;
6358;SDS011;3212;51.460;11.868;2022-09-09T00:54:24;2.53;;;1.87;;
6358;SDS011;3212;51.460;11.868;2022-09-09T00:57:46;4.60;;;1.83;;
6358;SDS011;3212;51.460;11.868;2022-09-09T01:01:09;3.57;;;1.80;;
6358;SDS011;3212;51.460;11.868;2022-09-09T01:04:32;1.97;;;1.77;;
6358;SDS011;3212;51.460;11.868;2022-09-09T01:07:54;4.43;;;2.00;;
6358;SDS011;3212;51.460;11.868;2022-09-09T01:11:22;2.27;;;1.97;;
6358;SDS011;3212;51.460;11.868;2022-09-09T01:15:07;3.13;;;2.00;;
6358;SDS011;3212;51.460;11.868;2022-09-09T01:18:32;2.43;;;1.70;;
6358;SDS011;3212;51.460;11.868;2022-09-09T01:21:58;6.20;;;2.07;;
6358;SDS011;3212;51.460;11.868;2022-09-09T01:25:22;1.80;;;1.70;;
6358;SDS011;3212;51.460;11.868;2022-09-09T01:28:44;4.60;;;1.60;;
6358;SDS011;3212;51.460;11.868;2022-09-09T01:35:57;3.23;;;2.07;;
6358;SDS011;3212;51.460;11.868;2022-09-09T01:39:17;2.33;;;1.60;;
6358;SDS011;3212;51.460;11.868;2022-09-09T01:42:40;4.77;;;2.00;;
6358;SDS011;3212;51.460;11.868;2022-09-09T01:46:02;5.10;;;2.00;;
6358;SDS011;3212;51.460;11.868;2022-09-09T01:49:25;6.50;;;2.13;;
6358;SDS011;3212;51.460;11.868;2022-09-09T01:52:49;4.90;;;1.80;;
6358;SDS011;3212;51.460;11.868;2022-09-09T01:56:17;3.97;;;1.90;;
6358;SDS011;3212;51.460;11.868;2022-09-09T02:00:04;4.30;;;1.70;;
6358;SDS011;3212;51.460;11.868;2022-09-09T02:03:28;3.00;;;1.63;;
6358;SDS011;3212;51.460;11.868;2022-09-09T02:06:50;2.40;;;1.80;;
6358;SDS011;3212;51.460;11.868;2022-09-09T02:10:16;1.87;;;1.60;;
6358;SDS011;3212;51.460;11.868;2022-09-09T02:13:38;2.10;;;1.90;;
6358;SDS011;3212;51.460;11.868;2022-09-09T02:17:01;4.43;;;1.77;;
6358;SDS011;3212;51.460;11.868;2022-09-09T02:20:24;2.30;;;2.00;;
6358;SDS011;3212;51.460;11.868;2022-09-09T02:23:47;3.20;;;1.53;;
6358;SDS011;3212;51.460;11.868;2022-09-09T02:27:09;3.30;;;2.00;;
6358;SDS011;3212;51.460;11.868;2022-09-09T02:30:32;3.47;;;1.97;;
6358;SDS011;3212;51.460;11.868;2022-09-09T02:33:55;3.13;;;1.87;;
6358;SDS011;3212;51.460;11.868;2022-09-09T02:37:18;2.67;;;1.90;;
6358;SDS011;3212;51.460;11.868;2022-09-09T02:40:39;4.20;;;1.87;;
6358;SDS011;3212;51.460;11.868;2022-09-09T02:44:05;3.13;;;1.70;;
6358;SDS011;3212;51.460;11.868;2022-09-09T02:47:35;4.20;;;2.07;;
6358;SDS011;3212;51.460;11.868;2022-09-09T02:51:02;3.00;;;1.80;;
6358;SDS011;3212;51.460;11.868;2022-09-09T02:54:27;2.70;;;2.03;;
6358;SDS011;3212;51.460;11.868;2022-09-09T02:57:51;3.13;;;1.57;;
6358;SDS011;3212;51.460;11.868;2022-09-09T03:01:13;2.77;;;2.17;;
6358;SDS011;3212;51.460;11.868;2022-09-09T03:04:36;3.20;;;1.97;;
6358;SDS011;3212;51.460;11.868;2022-09-09T03:07:58;2.50;;;1.93;;
6358;SDS011;3212;51.460;11.868;2022-09-09T03:11:21;3.57;;;2.03;;
6358;SDS011;3212;51.460;11.868;2022-09-09T03:14:44;2.43;;;1.77;;
6358;SDS011;3212;51.460;11.868;2022-09-09T03:18:06;2.20;;;1.70;;
6358;SDS011;3212;51.460;11.868;2022-09-09T03:21:29;2.60;;;1.80;;
6358;SDS011;3212;51.460;11.868;2022-09-09T03:24:51;8.77;;;2.40;;
6358;SDS011;3212;51.460;11.868;2022-09-09T03:28:14;2.10;;;1.90;;
6358;SDS011;3212;51.460;11.868;2022-09-09T03:31:37;2.40;;;2.20;;
6358;SDS011;3212;51.460;11.868;2022-09-09T03:35:00;2.07;;;1.87;;
6358;SDS011;3212;51.460;11.868;2022-09-09T03:38:23;3.10;;;1.90;;
6358;SDS011;3212;51.460;11.868;2022-09-09T03:41:46;5.30;;;2.07;;
6358;SDS011;3212;51.460;11.868;2022-09-09T03:45:09;5.47;;;2.37;;
6358;SDS011;3212;51.460;11.868;2022-09-09T03:48:31;2.80;;;1.90;;
6358;SDS011;3212;51.460;11.868;2022-09-09T03:51:53;2.20;;;1.90;;
6358;SDS011;3212;51.460;11.868;2022-09-09T03:55:15;5.80;;;2.63;;
6358;SDS011;3212;51.460;11.868;2022-09-09T03:58:38;4.50;;;2.30;;
6358;SDS011;3212;51.460;11.868;2022-09-09T04:02:01;2.60;;;2.30;;
6358;SDS011;3212;51.460;11.868;2022-09-09T04:05:23;3.40;;;2.50;;
6358;SDS011;3212;51.460;11.868;2022-09-09T04:08:46;3.60;;;2.67;;
6358;SDS011;3212;51.460;11.868;2022-09-09T04:12:11;4.60;;;2.37;;
6358;SDS011;3212;51.460;11.868;2022-09-09T04:15:34;3.33;;;2.60;;
6358;SDS011;3212;51.460;11.868;2022-09-09T04:18:56;3.07;;;2.77;;
6358;SDS011;3212;51.460;11.868;2022-09-09T04:22:19;3.53;;;2.80;;
6358;SDS011;3212;51.460;11.868;2022-09-09T04:25:46;6.27;;;2.57;;
6358;SDS011;3212;51.460;11.868;2022-09-09T04:29:09;6.10;;;3.40;;
6358;SDS011;3212;51.460;11.868;2022-09-09T04:32:32;9.07;;;2.97;;
6358;SDS011;3212;51.460;11.868;2022-09-09T04:35:55;3.63;;;2.90;;
6358;SDS011;3212;51.460;11.868;2022-09-09T04:39:17;4.27;;;3.30;;
6358;SDS011;3212;51.460;11.868;2022-09-09T04:42:40;3.53;;;2.90;;
6358;SDS011;3212;51.460;11.868;2022-09-09T04:46:02;3.97;;;2.40;;
6358;SDS011;3212;51.460;11.868;2022-09-09T04:49:25;5.40;;;3.00;;
6358;SDS011;3212;51.460;11.868;2022-09-09T04:52:48;4.47;;;3.30;;
6358;SDS011;3212;51.460;11.868;2022-09-09T04:56:12;4.30;;;2.87;;
6358;SDS011;3212;51.460;11.868;2022-09-09T04:59:34;7.50;;;4.33;;
6358;SDS011;3212;51.460;11.868;2022-09-09T05:02:57;5.07;;;3.50;;
6358;SDS011;3212;51.460;11.868;2022-09-09T05:06:21;5.90;;;3.43;;
6358;SDS011;3212;51.460;11.868;2022-09-09T05:09:44;6.23;;;3.50;;
6358;SDS011;3212;51.460;11.868;2022-09-09T05:13:06;7.60;;;3.10;;
6358;SDS011;3212;51.460;11.868;2022-09-09T05:16:29;6.93;;;3.67;;
6358;SDS011;3212;51.460;11.868;2022-09-09T05:19:51;6.13;;;3.20;;
6358;SDS011;3212;51.460;11.868;2022-09-09T05:23:14;6.03;;;3.67;;
6358;SDS011;3212;51.460;11.868;2022-09-09T05:26:36;5.77;;;3.20;;
6358;SDS011;3212;51.460;11.868;2022-09-09T05:29:59;9.30;;;3.73;;
6358;SDS011;3212;51.460;11.868;2022-09-09T05:33:22;4.10;;;3.23;;
6358;SDS011;3212;51.460;11.868;2022-09-09T05:36:46;5.20;;;3.37;;
6358;SDS011;3212;51.460;11.868;2022-09-09T05:40:08;3.40;;;3.10;;
6358;SDS011;3212;51.460;11.868;2022-09-09T05:43:32;5.15;;;3.70;;
6358;SDS011;3212;51.460;11.868;2022-09-09T05:46:54;8.70;;;3.60;;
6358;SDS011;3212;51.460;11.868;2022-09-09T05:50:17;5.23;;;3.70;;
6358;SDS011;3212;51.460;11.868;2022-09-09T05:53:39;6.17;;;4.37;;
6358;SDS011;3212;51.460;11.868;2022-09-09T05:57:02;7.83;;;4.53;;
6358;SDS011;3212;51.460;11.868;2022-09-09T06:00:26;7.00;;;4.40;;
6358;SDS011;3212;51.460;11.868;2022-09-09T06:03:49;6.50;;;3.70;;
6358;SDS011;3212;51.460;11.868;2022-09-09T06:07:11;6.30;;;2.90;;
6358;SDS011;3212;51.460;11.868;2022-09-09T06:10:34;3.57;;;2.37;;
6358;SDS011;3212;51.460;11.868;2022-09-09T06:13:56;3.73;;;1.80;;
6358;SDS011;3212;51.460;11.868;2022-09-09T06:17:18;4.33;;;1.80;;
6358;SDS011;3212;51.460;11.868;2022-09-09T06:20:41;5.33;;;2.10;;
6358;SDS011;3212;51.460;11.868;2022-09-09T06:24:03;4.47;;;1.90;;
6358;SDS011;3212;51.460;11.868;2022-09-09T06:27:27;2.00;;;1.57;;
6358;SDS011;3212;51.460;11.868;2022-09-09T06:30:48;2.53;;;1.57;;
6358;SDS011;3212;51.460;11.868;2022-09-09T06:34:11;4.07;;;1.50;;
6358;SDS011;3212;51.460;11.868;2022-09-09T06:37:33;3.53;;;2.10;;
6358;SDS011;3212;51.460;11.868;2022-09-09T06:40:57;2.63;;;1.50;;
6358;SDS011;3212;51.460;11.868;2022-09-09T06:44:19;1.73;;;1.50;;
6358;SDS011;3212;51.460;11.868;2022-09-09T06:47:41;3.53;;;1.70;;
6358;SDS011;3212;51.460;11.868;2022-09-09T06:51:04;2.37;;;1.70;;
6358;SDS011;3212;51.460;11.868;2022-09-09T06:54:27;2.30;;;1.60;;
6358;SDS011;3212;51.460;11.868;2022-09-09T06:57:49;3.20;;;1.70;;
6358;SDS011;3212;51.460;11.868;2022-09-09T07:01:13;4.70;;;2.33;;
6358;SDS011;3212;51.460;11.868;2022-09-09T07:04:34;3.80;;;2.40;;
6358;SDS011;3212;51.460;11.868;2022-09-09T07:07:57;3.63;;;1.90;;
6358;SDS011;3212;51.460;11.868;2022-09-09T07:11:20;3.47;;;1.93;;
6358;SDS011;3212;51.460;11.868;2022-09-09T07:14:42;3.37;;;1.40;;
6358;SDS011;3212;51.460;11.868;2022-09-09T07:18:05;2.37;;;1.50;;
6358;SDS011;3212;51.460;11.868;2022-09-09T07:21:28;2.80;;;1.80;;
6358;SDS011;3212;51.460;11.868;2022-09-09T07:24:50;2.00;;;1.23;;
6358;SDS011;3212;51.460;11.868;2022-09-09T07:28:13;3.00;;;1.40;;
6358;SDS011;3212;51.460;11.868;2022-09-09T07:31:37;3.37;;;1.40;;
6358;SDS011;3212;51.460;11.868;2022-09-09T07:34:58;3.63;;;1.27;;
6358;SDS011;3212;51.460;11.868;2022-09-09T07:38:21;3.87;;;1.33;;
6358;SDS011;3212;51.460;11.868;2022-09-09T07:41:45;2.30;;;1.33;;
6358;SDS011;3212;51.460;11.868;2022-09-09T07:45:06;4.00;;;1.50;;
6358;SDS011;3212;51.460;11.868;2022-09-09T07:48:29;3.50;;;1.30;;
6358;SDS011;3212;51.460;11.868;2022-09-09T07:51:52;1.40;;;1.30;;
6358;SDS011;3212;51.460;11.868;2022-09-09T07:55:15;2.70;;;1.30;;
6358;SDS011;3212;51.460;11.868;2022-09-09T07:58:37;1.87;;;1.40;;
6358;SDS011;3212;51.460;11.868;2022-09-09T08:02:00;1.50;;;1.40;;
6358;SDS011;3212;51.460;11.868;2022-09-09T08:05:22;2.33;;;1.27;;
6358;SDS011;3212;51.460;11.868;2022-09-09T08:08:49;2.90;;;1.37;;
6358;SDS011;3212;51.460;11.868;2022-09-09T08:12:08;1.90;;;1.10;;
6358;SDS011;3212;51.460;11.868;2022-09-09T08:15:31;1.83;;;1.50;;
6358;SDS011;3212;51.460;11.868;2022-09-09T08:18:54;2.20;;;1.30;;
6358;SDS011;3212;51.460;11.868;2022-09-09T08:22:16;3.47;;;1.43;;
6358;SDS011;3212;51.460;11.868;2022-09-09T08:25:39;2.00;;;1.40;;
6358;SDS011;3212;51.460;11.868;2022-09-09T08:29:03;1.50;;;1.23;;
6358;SDS011;3212;51.460;11.868;2022-09-09T08:32:24;2.90;;;1.33;;
6358;SDS011;3212;51.460;11.868;2022-09-09T08:35:50;1.97;;;1.10;;
6358;SDS011;3212;51.460;11.868;2022-09-09T08:39:13;3.10;;;1.50;;
6358;SDS011;3212;51.460;11.868;2022-09-09T08:42:38;3.53;;;1.30;;
6358;SDS011;3212;51.460;11.868;2022-09-09T08:46:01;2.50;;;1.40;;
6358;SDS011;3212;51.460;11.868;2022-09-09T08:52:56;4.40;;;1.60;;
6358;SDS011;3212;51.460;11.868;2022-09-09T08:56:22;2.10;;;1.20;;
6358;SDS011;3212;51.460;11.868;2022-09-09T08:59:44;3.97;;;1.00;;
6358;SDS011;3212;51.460;11.868;2022-09-09T09:03:14;1.83;;;1.00;;
6358;SDS011;3212;51.460;11.868;2022-09-09T09:06:50;1.30;;;1.10;;
6358;SDS011;3212;51.460;11.868;2022-09-09T09:10:24;1.90;;;1.07;;
6358;SDS011;3212;51.460;11.868;2022-09-09T09:13:50;2.17;;;1.30;;
6358;SDS011;3212;51.460;11.868;2022-09-09T09:17:13;4.23;;;1.37;;
6358;SDS011;3212;51.460;11.868;2022-09-09T09:20:39;7.63;;;1.47;;
6358;SDS011;3212;51.460;11.868;2022-09-09T09:24:00;2.07;;;1.20;;
6358;SDS011;3212;51.460;11.868;2022-09-09T09:34:31;4.50;;;1.20;;
6358;SDS011;3212;51.460;11.868;2022-09-09T09:37:53;1.00;;;0.90;;
6358;SDS011;3212;51.460;11.868;2022-09-09T09:41:16;1.90;;;1.17;;
6358;SDS011;3212;51.460;11.868;2022-09-09T09:44:38;2.77;;;1.20;;
6358;SDS011;3212;51.460;11.868;2022-09-09T09:48:03;6.77;;;1.40;;
6358;SDS011;3212;51.460;11.868;2022-09-09T09:51:27;3.10;;;1.20;;
6358;SDS011;3212;51.460;11.868;2022-09-09T09:54:49;3.33;;;1.57;;
6358;SDS011;3212;51.460;11.868;2022-09-09T09:58:13;4.50;;;1.50;;
6358;SDS011;3212;51.460;11.868;2022-09-09T10:01:35;5.13;;;1.40;;
6358;SDS011;3212;51.460;11.868;2022-09-09T10:05:00;2.27;;;1.40;;
6358;SDS011;3212;51.460;11.868;2022-09-09T10:08:25;4.07;;;1.47;;
6358;SDS011;3212;51.460;11.868;2022-09-09T10:11:52;3.10;;;1.30;;
6358;SDS011;3212;51.460;11.868;2022-09-09T10:18:57;1.27;;;1.00;;
6358;SDS011;3212;51.460;11.868;2022-09-09T10:22:25;3.80;;;1.47;;
6358;SDS011;3212;51.460;11.868;2022-09-09T10:25:58;1.67;;;1.10;;
6358;SDS011;3212;51.460;11.868;2022-09-09T10:29:20;2.10;;;1.73;;
6358;SDS011;3212;51.460;11.868;2022-09-09T10:32:46;3.07;;;1.30;;
6358;SDS011;3212;51.460;11.868;2022-09-09T10:36:13;1.63;;;1.40;;
6358;SDS011;3212;51.460;11.868;2022-09-09T10:39:37;3.62;;;1.15;;
6358;SDS011;3212;51.460;11.868;2022-09-09T10:43:02;5.50;;;1.30;;
6358;SDS011;3212;51.460;11.868;2022-09-09T10:50:00;3.00;;;1.60;;
6358;SDS011;3212;51.460;11.868;2022-09-09T10:53:36;2.50;;;1.50;;
6358;SDS011;3212;51.460;11.868;2022-09-09T10:56:59;2.33;;;1.10;;
6358;SDS011;3212;51.460;11.868;2022-09-09T11:00:22;2.23;;;1.30;;
6358;SDS011;3212;51.460;11.868;2022-09-09T11:03:44;2.53;;;1.10;;
6358;SDS011;3212;51.460;11.868;2022-09-09T11:07:09;2.53;;;1.10;;
6358;SDS011;3212;51.460;11.868;2022-09-09T11:14:04;3.40;;;1.33;;
6358;SDS011;3212;51.460;11.868;2022-09-09T11:17:33;3.60;;;1.23;;
6358;SDS011;3212;51.460;11.868;2022-09-09T11:20:55;3.27;;;1.30;;
6358;SDS011;3212;51.460;11.868;2022-09-09T11:24:18;5.03;;;1.27;;
6358;SDS011;3212;51.460;11.868;2022-09-09T11:31:31;2.10;;;0.93;;
6358;SDS011;3212;51.460;11.868;2022-09-09T11:35:16;2.63;;;0.97;;
6358;SDS011;3212;51.460;11.868;2022-09-09T11:38:44;3.43;;;1.20;;
6358;SDS011;3212;51.460;11.868;2022-09-09T11:42:06;1.67;;;1.10;;
6358;SDS011;3212;51.460;11.868;2022-09-09T11:45:42;1.50;;;1.30;;
6358;SDS011;3212;51.460;11.868;2022-09-09T11:49:05;1.97;;;1.20;;
6358;SDS011;3212;51.460;11.868;2022-09-09T11:56:01;3.30;;;1.33;;
6358;SDS011;3212;51.460;11.868;2022-09-09T11:59:24;1.17;;;1.00;;
6358;SDS011;3212;51.460;11.868;2022-09-09T12:02:48;3.27;;;1.17;;
6358;SDS011;3212;51.460;11.868;2022-09-09T12:06:14;1.87;;;1.03;;
6358;SDS011;3212;51.460;11.868;2022-09-09T12:16:46;6.07;;;1.47;;
6358;SDS011;3212;51.460;11.868;2022-09-09T12:20:13;2.90;;;1.30;;
6358;SDS011;3212;51.460;11.868;2022-09-09T12:23:46;1.87;;;1.60;;
6358;SDS011;3212;51.460;11.868;2022-09-09T12:27:10;4.27;;;1.30;;
6358;SDS011;3212;51.460;11.868;2022-09-09T12:30:40;2.37;;;1.40;;
6358;SDS011;3212;51.460;11.868;2022-09-09T12:34:06;2.27;;;1.30;;
6358;SDS011;3212;51.460;11.868;2022-09-09T12:37:35;2.00;;;0.90;;
6358;SDS011;3212;51.460;11.868;2022-09-09T12:41:01;2.17;;;0.93;;
6358;SDS011;3212;51.460;11.868;2022-09-09T12:44:25;2.20;;;1.07;;
6358;SDS011;3212;51.460;11.868;2022-09-09T12:47:50;3.97;;;1.50;;
6358;SDS011;3212;51.460;11.868;2022-09-09T12:54:55;3.87;;;1.10;;
6358;SDS011;3212;51.460;11.868;2022-09-09T12:58:18;2.83;;;0.90;;
6358;SDS011;3212;51.460;11.868;2022-09-09T13:01:40;2.60;;;1.13;;
6358;SDS011;3212;51.460;11.868;2022-09-09T13:05:06;1.20;;;0.87;;
6358;SDS011;3212;51.460;11.868;2022-09-09T13:08:28;3.00;;;1.00;;
6358;SDS011;3212;51.460;11.868;2022-09-09T13:11:52;3.73;;;1.47;;
6358;SDS011;3212;51.460;11.868;2022-09-09T13:15:16;2.37;;;1.00;;
6358;SDS011;3212;51.460;11.868;2022-09-09T13:18:41;1.40;;;1.20;;
6358;SDS011;3212;51.460;11.868;2022-09-09T13:25:34;2.27;;;1.00;;
6358;SDS011;3212;51.460;11.868;2022-09-09T13:29:07;1.67;;;1.00;;
6358;SDS011;3212;51.460;11.868;2022-09-09T13:32:19;3.03;;;0.97;;
6358;SDS011;3212;51.460;11.868;2022-09-09T13:35:47;3.63;;;1.10;;
6358;SDS011;3212;51.460;11.868;2022-09-09T13:39:15;2.80;;;1.07;;
6358;SDS011;3212;51.460;11.868;2022-09-09T13:42:41;1.73;;;0.93;;
6358;SDS011;3212;51.460;11.868;2022-09-09T13:45:55;3.07;;;1.10;;
6358;SDS011;3212;51.460;11.868;2022-09-09T13:49:19;2.93;;;1.20;;
6358;SDS011;3212;51.460;11.868;2022-09-09T13:52:41;1.33;;;0.97;;
6358;SDS011;3212;51.460;11.868;2022-09-09T13:56:04;1.73;;;1.00;;
6358;SDS011;3212;51.460;11.868;2022-09-09T13:59:26;2.70;;;1.00;;
6358;SDS011;3212;51.460;11.868;2022-09-09T14:02:49;1.00;;;0.90;;
6358;SDS011;3212;51.460;11.868;2022-09-09T14:06:11;1.83;;;1.00;;
6358;SDS011;3212;51.460;11.868;2022-09-09T14:09:34;3.23;;;0.90;;
6358;SDS011;3212;51.460;11.868;2022-09-09T14:12:56;1.53;;;0.87;;
6358;SDS011;3212;51.460;11.868;2022-09-09T14:16:19;1.33;;;0.80;;
6358;SDS011;3212;51.460;11.868;2022-09-09T14:19:41;1.70;;;0.80;;
6358;SDS011;3212;51.460;11.868;2022-09-09T14:23:04;1.10;;;1.00;;
6358;SDS011;3212;51.460;11.868;2022-09-09T14:26:26;2.70;;;0.90;;
6358;SDS011;3212;51.460;11.868;2022-09-09T14:29:49;1.97;;;0.80;;
6358;SDS011;3212;51.460;11.868;2022-09-09T14:33:13;1.10;;;0.80;;
6358;SDS011;3212;51.460;11.868;2022-09-09T14:36:35;1.07;;;0.70;;
6358;SDS011;3212;51.460;11.868;2022-09-09T14:39:57;1.93;;;0.83;;
6358;SDS011;3212;51.460;11.868;2022-09-09T14:43:20;0.80;;;0.70;;
6358;SDS011;3212;51.460;11.868;2022-09-09T14:46:43;1.00;;;0.70;;
6358;SDS011;3212;51.460;11.868;2022-09-09T14:50:05;0.80;;;0.70;;
6358;SDS011;3212;51.460;11.868;2022-09-09T14:53:28;1.40;;;0.70;;
6358;SDS011;3212;51.460;11.868;2022-09-09T14:56:51;0.70;;;0.70;;
6358;SDS011;3212;51.460;11.868;2022-09-09T15:00:14;1.47;;;0.90;;
6358;SDS011;3212;51.460;11.868;2022-09-09T15:03:36;2.17;;;0.70;;
6358;SDS011;3212;51.460;11.868;2022-09-09T15:06:59;2.40;;;0.70;;
6358;SDS011;3212;51.460;11.868;2022-09-09T15:10:22;1.27;;;0.70;;
6358;SDS011;3212;51.460;11.868;2022-09-09T15:13:44;1.37;;;0.60;;
6358;SDS011;3212;51.460;11.868;2022-09-09T15:17:07;1.20;;;0.70;;
6358;SDS011;3212;51.460;11.868;2022-09-09T15:20:30;2.70;;;0.90;;
6358;SDS011;3212;51.460;11.868;2022-09-09T15:23:52;3.47;;;0.70;;
6358;SDS011;3212;51.460;11.868;2022-09-09T15:27:15;2.10;;;0.80;;
6358;SDS011;3212;51.460;11.868;2022-09-09T15:30:38;1.00;;;0.70;;
6358;SDS011;3212;51.460;11.868;2022-09-09T15:34:01;1.93;;;0.77;;
6358;SDS011;3212;51.460;11.868;2022-09-09T15:37:23;2.13;;;1.07;;
6358;SDS011;3212;51.460;11.868;2022-09-09T15:40:52;0.80;;;0.70;;
6358;SDS011;3212;51.460;11.868;2022-09-09T15:44:09;0.93;;;0.83;;
6358;SDS011;3212;51.460;11.868;2022-09-09T15:47:31;1.87;;;0.80;;
6358;SDS011;3212;51.460;11.868;2022-09-09T15:51:01;2.87;;;1.10;;
6358;SDS011;3212;51.460;11.868;2022-09-09T15:54:24;2.63;;;0.80;;
6358;SDS011;3212;51.460;11.868;2022-09-09T15:57:46;2.30;;;0.80;;
6358;SDS011;3212;51.460;11.868;2022-09-09T16:01:10;4.23;;;0.87;;
6358;SDS011;3212;51.460;11.868;2022-09-09T16:04:33;2.50;;;0.90;;
6358;SDS011;3212;51.460;11.868;2022-09-09T16:07:56;1.90;;;0.80;;
6358;SDS011;3212;51.460;11.868;2022-09-09T16:11:21;1.70;;;1.00;;
6358;SDS011;3212;51.460;11.868;2022-09-09T16:14:44;2.03;;;1.00;;
6358;SDS011;3212;51.460;11.868;2022-09-09T16:18:06;1.00;;;0.80;;
6358;SDS011;3212;51.460;11.868;2022-09-09T16:21:31;1.13;;;0.77;;
6358;SDS011;3212;51.460;11.868;2022-09-09T16:24:52;0.70;;;0.60;;
6358;SDS011;3212;51.460;11.868;2022-09-09T16:28:14;1.83;;;0.70;;
6358;SDS011;3212;51.460;11.868;2022-09-09T16:31:37;2.13;;;0.90;;
6358;SDS011;3212;51.460;11.868;2022-09-09T16:34:59;1.10;;;0.80;;
6358;SDS011;3212;51.460;11.868;2022-09-09T16:38:22;2.07;;;1.03;;
6358;SDS011;3212;51.460;11.868;2022-09-09T16:41:45;2.00;;;1.10;;
6358;SDS011;3212;51.460;11.868;2022-09-09T16:45:07;1.90;;;0.90;;
6358;SDS011;3212;51.460;11.868;2022-09-09T16:48:31;1.00;;;0.90;;
6358;SDS011;3212;51.460;11.868;2022-09-09T16:51:53;4.87;;;0.80;;
6358;SDS011;3212;51.460;11.868;2022-09-09T16:55:15;1.80;;;0.93;;
6358;SDS011;3212;51.460;11.868;2022-09-09T16:58:38;4.70;;;1.20;;
6358;SDS011;3212;51.460;11.868;2022-09-09T17:02:00;1.73;;;0.90;;
6358;SDS011;3212;51.460;11.868;2022-09-09T17:05:22;1.77;;;0.80;;
6358;SDS011;3212;51.460;11.868;2022-09-09T17:08:45;2.90;;;1.07;;
6358;SDS011;3212;51.460;11.868;2022-09-09T17:12:08;1.90;;;0.90;;
6358;SDS011;3212;51.460;11.868;2022-09-09T17:15:31;1.20;;;0.90;;
6358;SDS011;3212;51.460;11.868;2022-09-09T17:18:54;1.37;;;0.80;;
6358;SDS011;3212;51.460;11.868;2022-09-09T17:22:16;1.23;;;0.87;;
6358;SDS011;3212;51.460;11.868;2022-09-09T17:25:40;1.63;;;0.70;;
6358;SDS011;3212;51.460;11.868;2022-09-09T17:29:02;1.83;;;0.83;;
6358;SDS011;3212;51.460;11.868;2022-09-09T17:32:24;1.40;;;0.90;;
6358;SDS011;3212;51.460;11.868;2022-09-09T17:35:47;3.70;;;0.80;;
6358;SDS011;3212;51.460;11.868;2022-09-09T17:39:09;1.77;;;0.90;;
6358;SDS011;3212;51.460;11.868;2022-09-09T17:42:32;2.87;;;0.90;;
6358;SDS011;3212;51.460;11.868;2022-09-09T17:45:55;2.17;;;1.07;;
6358;SDS011;3212;51.460;11.868;2022-09-09T17:49:17;2.50;;;0.80;;
6358;SDS011;3212;51.460;11.868;2022-09-09T17:52:40;2.40;;;0.83;;
6358;SDS011;3212;51.460;11.868;2022-09-09T17:56:03;2.10;;;1.00;;
6358;SDS011;3212;51.460;11.868;2022-09-09T17:59:25;1.30;;;0.90;;
6358;SDS011;3212;51.460;11.868;2022-09-09T18:02:48;3.13;;;0.97;;
6358;SDS011;3212;51.460;11.868;2022-09-09T18:06:11;1.33;;;1.10;;
6358;SDS011;3212;51.460;11.868;2022-09-09T18:09:34;1.37;;;1.07;;
6358;SDS011;3212;51.460;11.868;2022-09-09T18:12:57;2.20;;;0.90;;
6358;SDS011;3212;51.460;11.868;2022-09-09T18:16:20;1.70;;;1.00;;
6358;SDS011;3212;51.460;11.868;2022-09-09T18:19:42;2.10;;;1.00;;
6358;SDS011;3212;51.460;11.868;2022-09-09T18:23:04;1.93;;;0.70;;
6358;SDS011;3212;51.460;11.868;2022-09-09T18:26:27;1.67;;;0.80;;
6358;SDS011;3212;51.460;11.868;2022-09-09T18:29:50;1.97;;;1.10;;
6358;SDS011;3212;51.460;11.868;2022-09-09T18:33:13;2.73;;;0.90;;
6358;SDS011;3212;51.460;11.868;2022-09-09T18:36:37;1.53;;;0.93;;
6358;SDS011;3212;51.460;11.868;2022-09-09T18:39:58;2.30;;;1.00;;
6358;SDS011;3212;51.460;11.868;2022-09-09T18:43:22;2.20;;;1.00;;
6358;SDS011;3212;51.460;11.868;2022-09-09T18:46:44;2.50;;;1.00;;
6358;SDS011;3212;51.460;11.868;2022-09-09T18:50:06;2.27;;;1.10;;
6358;SDS011;3212;51.460;11.868;2022-09-09T18:53:29;1.37;;;1.00;;
6358;SDS011;3212;51.460;11.868;2022-09-09T18:56:52;1.20;;;0.80;;
6358;SDS011;3212;51.460;11.868;2022-09-09T19:00:14;1.10;;;1.00;;
6358;SDS011;3212;51.460;11.868;2022-09-09T19:03:37;2.93;;;1.20;;
6358;SDS011;3212;51.460;11.868;2022-09-09T19:06:59;2.50;;;1.17;;
6358;SDS011;3212;51.460;11.868;2022-09-09T19:10:21;2.40;;;1.20;;
6358;SDS011;3212;51.460;11.868;2022-09-09T19:13:48;3.70;;;1.30;;
6358;SDS011;3212;51.460;11.868;2022-09-09T19:17:11;1.50;;;1.40;;
6358;SDS011;3212;51.460;11.868;2022-09-09T19:20:34;1.20;;;1.10;;
6358;SDS011;3212;51.460;11.868;2022-09-09T19:23:58;1.30;;;1.10;;
6358;SDS011;3212;51.460;11.868;2022-09-09T19:27:21;3.40;;;1.40;;
6358;SDS011;3212;51.460;11.868;2022-09-09T19:30:43;4.27;;;1.20;;
6358;SDS011;3212;51.460;11.868;2022-09-09T19:34:06;1.67;;;0.90;;
6358;SDS011;3212;51.460;11.868;2022-09-09T19:37:29;1.87;;;1.50;;
6358;SDS011;3212;51.460;11.868;2022-09-09T19:40:51;2.20;;;1.53;;
6358;SDS011;3212;51.460;11.868;2022-09-09T19:44:14;2.03;;;1.30;;
6358;SDS011;3212;51.460;11.868;2022-09-09T19:47:37;2.67;;;1.30;;
6358;SDS011;3212;51.460;11.868;2022-09-09T19:51:02;1.97;;;1.30;;
6358;SDS011;3212;51.460;11.868;2022-09-09T19:54:24;3.40;;;1.30;;
6358;SDS011;3212;51.460;11.868;2022-09-09T19:57:47;1.80;;;1.23;;
6358;SDS011;3212;51.460;11.868;2022-09-09T20:01:10;1.53;;;1.10;;
6358;SDS011;3212;51.460;11.868;2022-09-09T20:04:32;1.93;;;1.20;;
6358;SDS011;3212;51.460;11.868;2022-09-09T20:07:55;1.53;;;1.00;;
6358;SDS011;3212;51.460;11.868;2022-09-09T20:11:17;5.17;;;1.33;;
6358;SDS011;3212;51.460;11.868;2022-09-09T20:14:40;1.50;;;0.93;;
6358;SDS011;3212;51.460;11.868;2022-09-09T20:18:03;4.10;;;1.20;;
6358;SDS011;3212;51.460;11.868;2022-09-09T20:21:28;1.80;;;1.10;;
6358;SDS011;3212;51.460;11.868;2022-09-09T20:24:52;1.63;;;1.23;;
6358;SDS011;3212;51.460;11.868;2022-09-09T20:28:15;2.13;;;1.40;;
6358;SDS011;3212;51.460;11.868;2022-09-09T20:31:37;3.97;;;1.30;;
6358;SDS011;3212;51.460;11.868;2022-09-09T20:35:00;2.40;;;0.90;;
6358;SDS011;3212;51.460;11.868;2022-09-09T20:38:23;2.50;;;1.00;;
6358;SDS011;3212;51.460;11.868;2022-09-09T20:41:46;1.40;;;0.97;;
6358;SDS011;3212;51.460;11.868;2022-09-09T20:45:08;1.30;;;1.20;;
6358;SDS011;3212;51.460;11.868;2022-09-09T20:48:32;3.57;;;2.43;;
6358;SDS011;3212;51.460;11.868;2022-09-09T20:51:54;2.80;;;2.10;;
6358;SDS011;3212;51.460;11.868;2022-09-09T20:55:17;1.30;;;1.10;;
6358;SDS011;3212;51.460;11.868;2022-09-09T20:58:40;1.80;;;0.93;;
6358;SDS011;3212;51.460;11.868;2022-09-09T21:02:02;2.63;;;1.47;;
6358;SDS011;3212;51.460;11.868;2022-09-09T21:05:25;3.53;;;1.80;;
6358;SDS011;3212;51.460;11.868;2022-09-09T21:08:47;2.00;;;1.50;;
6358;SDS011;3212;51.460;11.868;2022-09-09T21:12:09;2.50;;;1.50;;
6358;SDS011;3212;51.460;11.868;2022-09-09T21:15:33;6.17;;;1.80;;
6358;SDS011;3212;51.460;11.868;2022-09-09T21:18:55;1.00;;;1.00;;
6358;SDS011;3212;51.460;11.868;2022-09-09T21:22:18;4.83;;;1.00;;
6358;SDS011;3212;51.460;11.868;2022-09-09T21:25:41;5.60;;;1.17;;
6358;SDS011;3212;51.460;11.868;2022-09-09T21:29:03;1.60;;;1.10;;
6358;SDS011;3212;51.460;11.868;2022-09-09T21:32:26;1.57;;;1.00;;
6358;SDS011;3212;51.460;11.868;2022-09-09T21:35:49;1.57;;;1.10;;
6358;SDS011;3212;51.460;11.868;2022-09-09T21:39:11;2.70;;;1.30;;